Aviation Digital Data Service (ADDS)

Output produced by METARs form (2059 UTC 23 April 2018)
found at http://aviationweather.gov/adds/metars/
 
KPQI 231724Z 2318/2418 27007KT P6SM SCT250 
     FM241500 23010G17KT P6SM SCT200